createdAt,value
2018-02-27T00:00:58.407Z,9.80
2018-02-27T00:03:25.175Z,9.80
2018-02-27T00:05:55.155Z,9.90
2018-02-27T00:08:21.850Z,10.00
2018-02-27T00:10:48.485Z,10.10
2018-02-27T00:13:15.106Z,10.20
2018-02-27T00:15:41.731Z,10.20
2018-02-27T00:18:08.753Z,10.40
2018-02-27T00:20:35.432Z,10.40
2018-02-27T00:23:02.200Z,10.50
2018-02-27T00:25:28.811Z,10.50
2018-02-27T00:27:55.435Z,10.60
2018-02-27T00:30:22.057Z,10.70
2018-02-27T00:32:49.128Z,10.80
2018-02-27T00:37:54.307Z,10.80
2018-02-27T00:40:20.931Z,10.90
2018-02-27T00:42:47.726Z,10.90
2018-02-27T00:45:14.354Z,11.00
2018-02-27T00:47:41.058Z,11.00
2018-02-27T00:50:13.215Z,10.90
2018-02-27T00:52:39.867Z,10.80
2018-02-27T00:55:06.588Z,10.80
2018-02-27T00:57:33.250Z,10.70
2018-02-27T00:59:59.867Z,10.70
2018-02-27T01:02:31.165Z,10.60
2018-02-27T01:05:01.274Z,10.50
2018-02-27T01:07:28.004Z,10.50
2018-02-27T01:09:54.626Z,10.50
2018-02-27T01:12:21.357Z,10.40
2018-02-27T01:15:00.701Z,10.40
2018-02-27T01:17:27.320Z,10.40
2018-02-27T01:20:00.720Z,10.30
2018-02-27T01:22:27.344Z,10.30
2018-02-27T01:24:54.012Z,10.30
2018-02-27T01:29:59.984Z,10.20
2018-02-27T01:35:05.955Z,10.20
2018-02-27T01:40:11.001Z,10.20
2018-02-27T01:42:37.734Z,10.10
2018-02-27T01:45:12.722Z,10.10
2018-02-27T01:47:39.356Z,10.10
2018-02-27T01:50:06.446Z,10.10
2018-02-27T01:52:33.090Z,10.10
2018-02-27T01:57:48.705Z,10.00
2018-02-27T02:05:33.602Z,10.00
2018-02-27T02:08:00.351Z,10.00
2018-02-27T02:10:27.070Z,9.90
2018-02-27T02:13:00.936Z,9.90
2018-02-27T02:15:27.618Z,9.90
2018-02-27T02:20:33.188Z,9.90
2018-02-27T02:22:59.839Z,9.80
2018-02-27T02:25:26.556Z,9.80
2018-02-27T02:27:53.192Z,9.80
2018-02-27T02:32:58.602Z,9.80
2018-02-27T02:35:25.242Z,9.80
2018-02-27T02:37:51.942Z,9.80
2018-02-27T02:40:18.674Z,9.80
2018-02-27T02:42:45.294Z,9.80
2018-02-27T02:47:51.294Z,9.90
2018-02-27T02:50:17.926Z,10.00
2018-02-27T02:52:44.552Z,10.00
2018-02-27T02:55:11.638Z,10.20
2018-02-27T02:57:43.276Z,10.20
2018-02-27T03:00:10.038Z,10.30
2018-02-27T03:02:36.672Z,10.40
2018-02-27T03:07:41.804Z,10.50
2018-02-27T03:10:08.439Z,10.60
2018-02-27T03:12:37.235Z,10.70
2018-02-27T03:15:03.879Z,10.80
2018-02-27T03:17:30.503Z,10.80
2018-02-27T03:22:36.171Z,10.90
2018-02-27T03:25:02.831Z,11.00
2018-02-27T03:27:29.458Z,11.00
2018-02-27T03:32:35.055Z,10.90
2018-02-27T03:35:01.767Z,10.80
2018-02-27T03:37:28.385Z,10.80
2018-02-27T03:42:33.872Z,10.60
2018-02-27T03:45:00.596Z,10.60
2018-02-27T03:47:31.321Z,10.50
2018-02-27T03:49:57.976Z,10.50
2018-02-27T03:52:24.641Z,10.40
2018-02-27T03:54:51.340Z,10.40
2018-02-27T03:57:17.991Z,10.40
2018-02-27T03:59:44.655Z,10.40
2018-02-27T04:02:11.284Z,10.30
2018-02-27T04:04:43.221Z,10.30
2018-02-27T04:07:09.853Z,10.30
2018-02-27T04:09:36.513Z,10.30
2018-02-27T04:12:03.234Z,10.20
2018-02-27T04:14:29.968Z,10.20
2018-02-27T04:16:56.619Z,10.20
2018-02-27T04:19:23.237Z,10.20
2018-02-27T04:21:49.987Z,10.20
2018-02-27T04:24:16.678Z,10.10
2018-02-27T04:26:43.361Z,10.10
2018-02-27T04:29:13.199Z,10.10
2018-02-27T04:31:43.426Z,10.10
2018-02-27T04:34:10.084Z,10.10
2018-02-27T04:36:39.243Z,10.10
2018-02-27T04:39:05.990Z,10.10
2018-02-27T04:41:32.724Z,10.00
2018-02-27T04:43:59.359Z,10.00
2018-02-27T04:46:25.986Z,10.00
2018-02-27T04:48:52.626Z,10.00
2018-02-27T04:51:19.292Z,10.00
2018-02-27T04:53:46.035Z,10.00
2018-02-27T04:56:12.654Z,10.00
2018-02-27T04:58:39.297Z,9.90
2018-02-27T05:01:06.119Z,9.90
2018-02-27T05:03:33.169Z,9.90
2018-02-27T05:05:59.820Z,9.90
2018-02-27T05:08:26.439Z,9.90
2018-02-27T05:10:53.494Z,9.80
2018-02-27T05:13:20.523Z,9.80
2018-02-27T05:15:47.616Z,9.80
2018-02-27T05:18:14.335Z,9.80
2018-02-27T05:20:40.964Z,9.80
2018-02-27T05:23:08.089Z,9.80
2018-02-27T05:25:34.751Z,9.80
2018-02-27T05:28:01.373Z,9.80
2018-02-27T05:30:27.990Z,9.80
2018-02-27T05:32:55.140Z,9.80
2018-02-27T05:35:21.788Z,9.80
2018-02-27T05:37:48.432Z,9.70
2018-02-27T05:40:15.054Z,9.70
2018-02-27T05:42:41.675Z,9.70
2018-02-27T05:45:08.766Z,9.70
2018-02-27T05:47:35.787Z,9.70
2018-02-27T05:50:02.408Z,9.70
2018-02-27T05:52:29.027Z,9.70
2018-02-27T05:54:55.648Z,9.80
2018-02-27T05:57:22.276Z,9.80
2018-02-27T05:59:48.919Z,9.90
2018-02-27T06:02:15.543Z,10.00
2018-02-27T06:04:42.165Z,10.00
2018-02-27T06:07:08.808Z,10.10
2018-02-27T06:09:35.825Z,10.30
2018-02-27T06:12:02.471Z,10.30
2018-02-27T06:14:29.104Z,10.30
2018-02-27T06:16:55.749Z,10.40
2018-02-27T06:19:22.403Z,10.50
2018-02-27T06:21:49.040Z,10.60
2018-02-27T06:24:15.663Z,10.70
2018-02-27T06:26:42.307Z,10.80
2018-02-27T06:31:47.911Z,10.90
2018-02-27T06:36:55.326Z,11.00
2018-02-27T06:39:22.054Z,10.90
2018-02-27T06:41:49.086Z,10.80
2018-02-27T06:44:15.711Z,10.80
2018-02-27T06:46:42.354Z,10.70
2018-02-27T06:49:09.373Z,10.60
2018-02-27T06:51:36.009Z,10.60
2018-02-27T06:54:02.629Z,10.50
2018-02-27T06:56:29.255Z,10.50
2018-02-27T06:58:55.879Z,10.40
2018-02-27T07:01:22.560Z,10.40
2018-02-27T07:03:49.184Z,10.40
2018-02-27T07:06:15.802Z,10.30
2018-02-27T07:11:21.479Z,10.30
2018-02-27T07:13:48.098Z,10.30
2018-02-27T07:16:14.721Z,10.20
2018-02-27T07:18:41.413Z,10.20
2018-02-27T07:21:08.026Z,10.20
2018-02-27T07:23:34.640Z,10.20
2018-02-27T07:26:01.258Z,10.10
2018-02-27T07:28:28.285Z,10.10
2018-02-27T07:30:54.915Z,10.10
2018-02-27T07:33:21.546Z,10.10
2018-02-27T07:35:48.196Z,10.10
2018-02-27T07:38:14.839Z,10.10
2018-02-27T07:40:41.465Z,10.10
2018-02-27T07:43:08.104Z,10.10
2018-02-27T07:45:34.722Z,10.00
2018-02-27T07:48:01.338Z,10.00
2018-02-27T07:50:27.966Z,10.00
2018-02-27T07:52:54.580Z,10.00
2018-02-27T07:55:21.202Z,10.00
2018-02-27T07:57:47.828Z,10.00
2018-02-27T08:00:14.466Z,10.00
2018-02-27T08:02:41.089Z,9.90
2018-02-27T08:05:07.722Z,9.90
2018-02-27T08:07:34.339Z,9.90
2018-02-27T08:10:01.043Z,9.90
2018-02-27T08:12:27.721Z,9.90
2018-02-27T08:14:54.333Z,9.90
2018-02-27T08:17:20.949Z,9.90
2018-02-27T08:19:47.583Z,9.80
2018-02-27T08:22:14.204Z,9.80
2018-02-27T08:24:40.882Z,9.80
2018-02-27T08:27:07.893Z,9.80
2018-02-27T08:29:34.523Z,9.80
2018-02-27T08:32:01.141Z,9.80
2018-02-27T08:34:27.765Z,9.80
2018-02-27T08:36:54.388Z,9.80
2018-02-27T08:39:21.009Z,9.80
2018-02-27T08:41:47.638Z,9.80
2018-02-27T08:44:14.270Z,9.80
2018-02-27T08:46:40.950Z,9.70
2018-02-27T08:49:07.979Z,9.70
2018-02-27T08:51:34.590Z,9.70
2018-02-27T08:54:01.209Z,9.70
2018-02-27T08:56:27.821Z,9.70
2018-02-27T08:58:54.454Z,9.70
2018-02-27T09:01:21.104Z,9.70
2018-02-27T09:03:47.722Z,9.70
2018-02-27T09:06:14.737Z,9.60
2018-02-27T09:08:41.381Z,9.70
2018-02-27T09:11:08.001Z,9.70
2018-02-27T09:13:34.627Z,9.60
2018-02-27T09:16:01.239Z,9.60
2018-02-27T09:18:27.881Z,9.60
2018-02-27T09:20:54.502Z,9.60
2018-02-27T09:23:21.152Z,9.60
2018-02-27T09:25:47.774Z,9.60
2018-02-27T09:28:14.409Z,9.60
2018-02-27T09:30:41.054Z,9.60
2018-02-27T09:33:07.673Z,9.60
2018-02-27T09:35:34.330Z,9.60
2018-02-27T09:38:00.956Z,9.60
2018-02-27T09:40:27.599Z,9.60
2018-02-27T09:42:54.221Z,9.50
2018-02-27T09:45:21.242Z,9.50
2018-02-27T09:47:47.850Z,9.50
2018-02-27T09:50:14.461Z,9.50
2018-02-27T09:52:41.078Z,9.50
2018-02-27T09:55:07.706Z,9.50
2018-02-27T09:57:34.320Z,9.50
2018-02-27T10:00:00.946Z,9.50
2018-02-27T10:02:27.558Z,9.50
2018-02-27T10:04:54.190Z,9.50
2018-02-27T10:07:20.810Z,9.50
2018-02-27T10:09:47.460Z,9.50
2018-02-27T10:12:14.088Z,9.50
2018-02-27T10:14:40.739Z,9.50
2018-02-27T10:17:07.374Z,9.50
2018-02-27T10:19:33.996Z,9.60
2018-02-27T10:22:00.629Z,9.70
2018-02-27T10:24:27.693Z,9.80
2018-02-27T10:26:54.330Z,9.80
2018-02-27T10:29:21.345Z,9.90
2018-02-27T10:31:47.978Z,9.90
2018-02-27T10:34:14.595Z,10.00
2018-02-27T10:36:41.254Z,10.10
2018-02-27T10:39:07.870Z,10.10
2018-02-27T10:41:34.500Z,10.20
2018-02-27T10:44:01.118Z,10.30
2018-02-27T10:46:27.753Z,10.40
2018-02-27T10:48:54.379Z,10.40
2018-02-27T10:51:21.021Z,10.50
2018-02-27T10:53:49.378Z,10.50
2018-02-27T10:56:16.398Z,10.60
2018-02-27T10:58:43.066Z,10.60
2018-02-27T11:01:15.837Z,10.80
2018-02-27T11:03:42.469Z,10.80
2018-02-27T11:06:09.092Z,10.80
2018-02-27T11:08:35.707Z,10.90
2018-02-27T11:11:02.356Z,10.90
2018-02-27T11:13:28.979Z,10.90
2018-02-27T11:15:55.608Z,10.90
2018-02-27T11:18:22.227Z,10.80
2018-02-27T11:20:48.874Z,10.80
2018-02-27T11:23:15.511Z,10.70
2018-02-27T11:25:42.154Z,10.70
2018-02-27T11:28:08.778Z,10.60
2018-02-27T11:30:35.466Z,10.50
2018-02-27T11:33:02.087Z,10.50
2018-02-27T11:35:28.761Z,10.40
2018-02-27T11:37:55.390Z,10.40
2018-02-27T11:40:22.057Z,10.40
2018-02-27T11:42:48.680Z,10.40
2018-02-27T11:45:15.323Z,10.30
2018-02-27T11:47:41.960Z,10.30
2018-02-27T11:50:08.622Z,10.30
2018-02-27T11:52:35.248Z,10.30
2018-02-27T11:55:02.266Z,10.20
2018-02-27T11:57:28.881Z,10.20
2018-02-27T11:59:55.495Z,10.20
2018-02-27T12:02:22.174Z,10.20
2018-02-27T12:04:48.780Z,10.20
2018-02-27T12:07:15.408Z,10.10
2018-02-27T12:09:42.073Z,10.10
2018-02-27T12:12:08.731Z,10.10
2018-02-27T12:14:35.374Z,10.10
2018-02-27T12:17:02.026Z,10.10
2018-02-27T12:19:28.637Z,10.10
2018-02-27T12:21:55.935Z,10.00
2018-02-27T12:24:22.958Z,10.00
2018-02-27T12:26:49.572Z,10.00
2018-02-27T12:29:16.207Z,10.00
2018-02-27T12:31:42.906Z,10.00
2018-02-27T12:34:09.532Z,10.00
2018-02-27T12:36:36.161Z,10.00
2018-02-27T12:39:02.777Z,10.00
2018-02-27T12:41:29.422Z,9.90
2018-02-27T12:43:56.043Z,9.90
2018-02-27T12:46:22.677Z,9.90
2018-02-27T12:48:49.289Z,9.90
2018-02-27T12:53:55.155Z,9.90
2018-02-27T12:56:21.782Z,9.90
2018-02-27T12:58:48.830Z,9.80
2018-02-27T13:01:15.465Z,9.80
2018-02-27T13:03:42.107Z,9.80
2018-02-27T13:06:08.749Z,9.80
2018-02-27T13:08:35.372Z,9.80
2018-02-27T13:11:02.018Z,9.80
2018-02-27T13:13:28.642Z,9.80
2018-02-27T13:15:55.681Z,9.80
2018-02-27T13:18:22.306Z,9.80
2018-02-27T13:20:48.972Z,9.70
2018-02-27T13:23:15.991Z,9.70
2018-02-27T13:25:42.608Z,9.70
2018-02-27T13:28:09.221Z,9.70
2018-02-27T13:30:35.844Z,9.70
2018-02-27T13:33:02.469Z,9.70
2018-02-27T13:35:29.484Z,9.70
2018-02-27T13:37:56.105Z,9.70
2018-02-27T13:40:22.744Z,9.70
2018-02-27T13:42:49.364Z,9.70
2018-02-27T13:45:15.981Z,9.60
2018-02-27T13:47:42.618Z,9.60
2018-02-27T13:50:09.270Z,9.60
2018-02-27T13:52:35.963Z,9.60
2018-02-27T13:55:02.597Z,9.60
2018-02-27T13:57:29.253Z,9.60
2018-02-27T13:59:56.289Z,9.60
2018-02-27T14:02:22.926Z,9.60
2018-02-27T14:04:49.550Z,9.60
2018-02-27T14:07:16.181Z,9.60
2018-02-27T14:09:42.795Z,9.50
2018-02-27T14:12:09.430Z,9.50
2018-02-27T14:14:36.051Z,9.50
2018-02-27T14:17:02.662Z,9.50
2018-02-27T14:19:29.705Z,9.50
2018-02-27T14:21:56.323Z,9.50
2018-02-27T14:24:22.987Z,9.50
2018-02-27T14:26:49.616Z,9.50
2018-02-27T14:29:16.272Z,9.50
2018-02-27T14:31:42.902Z,9.60
2018-02-27T14:34:09.913Z,9.70
2018-02-27T14:36:36.542Z,9.70
2018-02-27T14:39:03.163Z,9.80
2018-02-27T14:41:29.787Z,9.80
2018-02-27T14:43:56.420Z,9.90
2018-02-27T14:46:23.099Z,10.00
2018-02-27T14:48:49.750Z,10.10
2018-02-27T14:51:16.398Z,10.10
2018-02-27T14:53:43.022Z,10.20
2018-02-27T14:56:10.113Z,10.30
2018-02-27T14:58:36.755Z,10.30
2018-02-27T15:01:03.377Z,10.30
2018-02-27T15:03:30.008Z,10.40
2018-02-27T15:05:56.624Z,10.50
2018-02-27T15:08:23.256Z,10.50
2018-02-27T15:10:49.876Z,10.70
2018-02-27T15:13:16.489Z,10.70
2018-02-27T15:18:21.561Z,10.90
2018-02-27T15:20:48.174Z,10.90
2018-02-27T15:23:14.798Z,10.90
2018-02-27T15:25:41.820Z,10.90
2018-02-27T15:28:08.868Z,10.80
2018-02-27T15:30:35.490Z,10.70
2018-02-27T15:33:02.111Z,10.70
2018-02-27T15:35:28.761Z,10.70
2018-02-27T15:37:55.389Z,10.60
2018-02-27T15:40:22.016Z,10.60
2018-02-27T15:42:48.627Z,10.50
2018-02-27T15:45:15.258Z,10.50
2018-02-27T15:47:42.296Z,10.40
2018-02-27T15:50:08.915Z,10.40
2018-02-27T15:52:35.563Z,10.40
2018-02-27T15:57:40.762Z,10.30
2018-02-27T16:00:07.434Z,10.30
2018-02-27T16:02:34.078Z,10.30
2018-02-27T16:05:00.753Z,10.20
2018-02-27T16:07:27.388Z,10.20
2018-02-27T16:09:54.002Z,10.20
2018-02-27T16:12:20.641Z,10.20
2018-02-27T16:14:47.258Z,10.20
2018-02-27T16:17:13.899Z,10.10
2018-02-27T16:19:40.537Z,10.10
2018-02-27T16:22:07.163Z,10.10
2018-02-27T16:24:33.797Z,10.10
2018-02-27T16:27:00.447Z,10.10
2018-02-27T16:29:27.061Z,10.10
2018-02-27T16:31:53.728Z,10.10
2018-02-27T16:34:20.345Z,10.00
2018-02-27T16:36:46.988Z,10.00
2018-02-27T16:39:13.616Z,10.00
2018-02-27T16:41:40.236Z,10.00
2018-02-27T16:44:06.850Z,10.00
2018-02-27T16:46:33.502Z,10.00
2018-02-27T16:49:00.146Z,10.00
2018-02-27T16:51:26.781Z,9.90
2018-02-27T16:53:53.436Z,9.90
2018-02-27T16:56:20.064Z,9.90
2018-02-27T16:58:46.698Z,9.90
2018-02-27T17:01:13.557Z,9.90
2018-02-27T17:03:40.203Z,9.90
2018-02-27T17:06:06.824Z,9.90
2018-02-27T17:08:33.498Z,9.80
2018-02-27T17:11:00.115Z,9.80
2018-02-27T17:13:26.763Z,9.80
2018-02-27T17:15:53.388Z,9.80
2018-02-27T17:18:20.006Z,9.80
2018-02-27T17:20:46.622Z,9.80
2018-02-27T17:23:13.641Z,9.70
2018-02-27T17:25:40.272Z,9.70
2018-02-27T17:28:06.938Z,9.70
2018-02-27T17:30:33.613Z,9.70
2018-02-27T17:33:00.490Z,9.70
2018-02-27T17:35:27.117Z,9.70
2018-02-27T17:37:53.730Z,9.70
2018-02-27T17:40:20.360Z,9.70
2018-02-27T17:42:46.990Z,9.70
2018-02-27T17:45:13.636Z,9.70
2018-02-27T17:47:40.296Z,9.60
2018-02-27T17:50:06.966Z,9.60
2018-02-27T17:52:33.589Z,9.60
2018-02-27T17:55:00.222Z,9.60
2018-02-27T17:57:26.847Z,9.60
2018-02-27T17:59:53.636Z,9.60
2018-02-27T18:02:20.262Z,9.60
2018-02-27T18:04:46.887Z,9.60
2018-02-27T18:07:13.500Z,9.60
2018-02-27T18:09:42.008Z,9.60
2018-02-27T18:12:08.624Z,9.50
2018-02-27T18:14:36.329Z,9.50
2018-02-27T18:17:04.418Z,9.50
2018-02-27T18:19:33.747Z,9.50
2018-02-27T18:22:00.382Z,9.50
2018-02-27T18:24:29.202Z,9.50
2018-02-27T18:26:55.832Z,9.50
2018-02-27T18:29:22.459Z,9.50
2018-02-27T18:31:51.177Z,9.50
2018-02-27T18:34:17.790Z,9.50
2018-02-27T18:36:44.428Z,9.50
2018-02-27T18:39:11.049Z,9.50
2018-02-27T18:44:16.940Z,9.70
2018-02-27T18:46:43.574Z,9.70
2018-02-27T18:49:10.194Z,9.80
2018-02-27T18:51:36.884Z,10.00
2018-02-27T18:54:03.502Z,10.10
2018-02-27T18:56:30.120Z,10.10
2018-02-27T18:58:56.738Z,10.20
2018-02-27T19:01:23.370Z,10.30
2018-02-27T19:03:49.985Z,10.30
2018-02-27T19:06:16.601Z,10.40
2018-02-27T19:08:43.228Z,10.40
2018-02-27T19:11:09.840Z,10.40
2018-02-27T19:13:36.470Z,10.50
2018-02-27T19:16:03.165Z,10.50
2018-02-27T19:18:29.785Z,10.60
2018-02-27T19:20:56.441Z,10.60
2018-02-27T19:23:23.089Z,10.70
2018-02-27T19:25:49.726Z,10.80
2018-02-27T19:28:16.378Z,10.90
2018-02-27T19:30:43.027Z,10.90
2018-02-27T19:33:09.676Z,10.90
2018-02-27T19:35:36.291Z,10.90
2018-02-27T19:38:03.432Z,10.80
2018-02-27T19:40:30.114Z,10.80
2018-02-27T19:42:56.746Z,10.70
2018-02-27T19:45:23.575Z,10.60
2018-02-27T19:47:50.401Z,10.50
2018-02-27T19:50:17.110Z,10.50
2018-02-27T19:52:43.945Z,10.40
2018-02-27T19:55:10.605Z,10.40
2018-02-27T19:57:37.250Z,10.30
2018-02-27T20:00:03.960Z,10.30
2018-02-27T20:02:30.586Z,10.30
2018-02-27T20:04:57.287Z,10.20
2018-02-27T20:07:24.296Z,10.20
2018-02-27T20:09:50.924Z,10.20
2018-02-27T20:12:17.562Z,10.20
2018-02-27T20:14:44.405Z,10.20
2018-02-27T20:17:11.484Z,10.10
2018-02-27T20:19:38.530Z,10.10
2018-02-27T20:22:05.789Z,10.10
2018-02-27T20:24:32.494Z,10.10
2018-02-27T20:26:59.122Z,10.10
2018-02-27T20:29:25.797Z,10.00
2018-02-27T20:31:52.822Z,10.00
2018-02-27T20:34:19.446Z,10.00
2018-02-27T20:36:46.091Z,10.00
2018-02-27T20:39:18.480Z,10.00
2018-02-27T20:41:45.100Z,10.00
2018-02-27T20:44:11.726Z,10.00
2018-02-27T20:46:38.385Z,10.00
2018-02-27T20:49:05.021Z,9.90
2018-02-27T20:51:31.641Z,9.90
2018-02-27T20:53:58.302Z,9.90
2018-02-27T20:56:24.913Z,9.90
2018-02-27T20:58:51.544Z,9.90
2018-02-27T21:01:18.166Z,9.90
2018-02-27T21:06:23.337Z,9.80
2018-02-27T21:08:49.970Z,9.80
2018-02-27T21:11:16.582Z,9.80
2018-02-27T21:13:43.206Z,9.80
2018-02-27T21:16:10.223Z,9.80
2018-02-27T21:18:36.828Z,9.80
2018-02-27T21:21:03.452Z,9.70
2018-02-27T21:23:30.084Z,9.70
2018-02-27T21:25:56.710Z,9.70
2018-02-27T21:28:23.332Z,9.70
2018-02-27T21:30:49.975Z,9.70
2018-02-27T21:33:16.607Z,9.70
2018-02-27T21:35:43.232Z,9.70
2018-02-27T21:38:09.852Z,9.70
2018-02-27T21:40:36.471Z,9.70
2018-02-27T21:43:03.083Z,9.60
2018-02-27T21:45:29.720Z,9.60
2018-02-27T21:47:56.390Z,9.60
2018-02-27T21:50:23.010Z,9.60
2018-02-27T21:52:49.731Z,9.60
2018-02-27T21:55:16.366Z,9.60
2018-02-27T21:57:42.983Z,9.60
2018-02-27T22:00:09.626Z,9.60
2018-02-27T22:02:36.294Z,9.60
2018-02-27T22:05:02.890Z,9.60
2018-02-27T22:07:29.517Z,9.50
2018-02-27T22:09:56.144Z,9.50
2018-02-27T22:12:22.758Z,9.50
2018-02-27T22:14:49.381Z,9.50
2018-02-27T22:17:16.017Z,9.50
2018-02-27T22:19:42.630Z,9.50
2018-02-27T22:22:09.246Z,9.50
2018-02-27T22:24:35.948Z,9.50
2018-02-27T22:27:02.599Z,9.50
2018-02-27T22:29:29.222Z,9.50
2018-02-27T22:31:55.841Z,9.40
2018-02-27T22:34:22.862Z,9.40
2018-02-27T22:36:49.482Z,9.40
2018-02-27T22:39:16.127Z,9.40
2018-02-27T22:41:42.753Z,9.40
2018-02-27T22:44:09.378Z,9.40
2018-02-27T22:46:36.019Z,9.50
2018-02-27T22:49:02.650Z,9.50
2018-02-27T22:51:29.266Z,9.60
2018-02-27T22:54:01.747Z,9.70
2018-02-27T22:56:28.380Z,9.80
2018-02-27T22:58:54.998Z,9.80
2018-02-27T23:01:21.625Z,9.90
2018-02-27T23:03:48.638Z,10.00
2018-02-27T23:06:15.257Z,10.10
2018-02-27T23:08:41.879Z,10.10
2018-02-27T23:11:08.491Z,10.20
2018-02-27T23:13:35.120Z,10.30
2018-02-27T23:16:02.127Z,10.40
2018-02-27T23:18:29.144Z,10.50
2018-02-27T23:20:55.769Z,10.50
2018-02-27T23:23:22.430Z,10.60
2018-02-27T23:25:51.977Z,10.70
2018-02-27T23:28:20.061Z,10.80
2018-02-27T23:30:47.768Z,10.80
2018-02-27T23:33:14.486Z,10.80
2018-02-27T23:35:41.111Z,10.90
2018-02-27T23:38:07.741Z,10.90
2018-02-27T23:40:34.366Z,10.90
2018-02-27T23:43:01.008Z,10.80
2018-02-27T23:45:27.633Z,10.70
2018-02-27T23:47:54.266Z,10.70
2018-02-27T23:50:20.877Z,10.50
2018-02-27T23:52:47.550Z,10.50
2018-02-27T23:55:14.181Z,10.50
2018-02-27T23:57:40.798Z,10.40
